createdAt,value
2022-09-12T00:00:43.575Z,30.95
2022-09-12T00:05:50.526Z,11.46
2022-09-12T00:10:58.015Z,9.36
2022-09-12T00:16:05.016Z,12.27
2022-09-12T00:21:12.063Z,10.17
2022-09-12T00:26:19.051Z,9.38
2022-09-12T00:31:26.120Z,8.86
2022-09-12T00:36:33.060Z,8.46
2022-09-12T00:41:40.242Z,11.38
2022-09-12T00:46:47.176Z,12.55
2022-09-12T00:51:54.325Z,11.28
2022-09-12T00:57:01.360Z,10.93
2022-09-12T01:02:08.681Z,15.06
2022-09-12T01:07:15.478Z,12.66
2022-09-12T01:12:22.599Z,13.28
2022-09-12T01:17:30.862Z,13.06
2022-09-12T01:22:37.900Z,14.05
2022-09-12T01:27:44.857Z,11.72
2022-09-12T01:32:51.989Z,11.86
2022-09-12T01:37:58.891Z,16.38
2022-09-12T01:43:05.941Z,16.07
2022-09-12T01:48:14.299Z,13.33
2022-09-12T01:53:20.288Z,14.03
2022-09-12T01:58:27.356Z,13.03
2022-09-12T02:03:34.358Z,14.26
2022-09-12T02:08:41.424Z,14.39
2022-09-12T02:13:48.416Z,12.90
2022-09-12T02:18:55.347Z,13.07
2022-09-12T02:24:02.443Z,10.53
2022-09-12T02:29:11.938Z,13.03
2022-09-12T02:34:19.109Z,12.54
2022-09-12T02:39:26.045Z,8.89
2022-09-12T02:44:33.090Z,9.68
2022-09-12T02:49:40.071Z,10.08
2022-09-12T02:54:47.088Z,10.02
2022-09-12T02:59:54.001Z,13.88
2022-09-12T03:05:02.264Z,9.93
2022-09-12T03:10:09.237Z,12.08
2022-09-12T03:15:16.355Z,13.82
2022-09-12T03:20:23.258Z,13.70
2022-09-12T03:25:30.437Z,13.35
2022-09-12T03:30:37.472Z,13.33
2022-09-12T03:35:44.606Z,11.77
2022-09-12T03:40:54.733Z,14.85
2022-09-12T03:45:58.135Z,13.40
2022-09-12T03:51:08.069Z,12.58
2022-09-12T03:56:15.071Z,19.27
2022-09-12T04:01:22.098Z,25.89
2022-09-12T04:06:29.010Z,25.00
2022-09-12T04:11:36.160Z,26.09
2022-09-12T04:16:43.127Z,11.57
2022-09-12T04:21:50.031Z,11.23
2022-09-12T04:26:57.168Z,16.88
2022-09-12T04:32:04.163Z,24.14
2022-09-12T04:37:11.322Z,26.49
2022-09-12T04:42:18.314Z,25.35
2022-09-12T04:47:25.409Z,28.49
2022-09-12T04:52:32.316Z,28.00
2022-09-12T04:57:40.425Z,33.65
2022-09-12T05:02:47.575Z,28.47
2022-09-12T05:07:54.646Z,30.86
2022-09-12T05:13:01.848Z,28.33
2022-09-12T05:18:09.023Z,26.76
2022-09-12T05:23:15.977Z,38.60
2022-09-12T05:28:23.182Z,34.58
2022-09-12T05:33:30.179Z,31.93
2022-09-12T05:38:37.616Z,32.44
2022-09-12T05:43:45.594Z,36.14
2022-09-12T05:48:55.703Z,43.18
2022-09-12T05:53:59.207Z,35.82
2022-09-12T05:59:06.360Z,36.76
2022-09-12T06:04:13.378Z,35.68
2022-09-12T06:09:20.548Z,32.26
2022-09-12T06:14:27.505Z,32.69
2022-09-12T06:19:34.520Z,36.20
2022-09-12T06:24:41.489Z,39.94
2022-09-12T06:29:48.545Z,31.16
2022-09-12T06:34:56.450Z,35.89
2022-09-12T06:40:03.597Z,29.96
2022-09-12T06:45:10.943Z,25.72
2022-09-12T06:50:18.109Z,25.29
2022-09-12T06:55:27.752Z,24.73
2022-09-12T07:00:31.768Z,22.46
2022-09-12T07:05:38.835Z,15.87
2022-09-12T07:10:45.993Z,15.54
2022-09-12T07:15:52.974Z,11.87
2022-09-12T07:21:00.064Z,11.24
2022-09-12T07:26:07.111Z,9.72
2022-09-12T07:31:14.170Z,8.76
2022-09-12T07:36:21.023Z,7.27
2022-09-12T07:41:32.483Z,8.97
2022-09-12T07:46:28.159Z,9.74
2022-09-12T07:51:35.386Z,8.29
2022-09-12T07:56:42.285Z,6.43
2022-09-12T08:06:58.908Z,6.18
2022-09-12T08:12:08.261Z,7.07
2022-09-12T08:17:15.241Z,8.47
2022-09-12T08:22:22.403Z,7.54
2022-09-12T08:27:29.426Z,6.67
2022-09-12T08:32:37.406Z,6.67
2022-09-12T08:37:44.702Z,6.10
2022-09-12T08:42:51.835Z,4.95
2022-09-12T08:47:58.801Z,4.18
2022-09-12T08:53:05.941Z,4.31
2022-09-12T08:58:12.906Z,4.39
2022-09-12T09:03:20.053Z,5.10
2022-09-12T09:08:27.115Z,5.57
2022-09-12T09:13:34.271Z,3.25
2022-09-12T09:18:41.322Z,3.22
2022-09-12T09:23:48.323Z,3.00
2022-09-12T09:28:55.321Z,2.78
2022-09-12T09:34:02.590Z,3.63
2022-09-12T09:39:09.520Z,2.97
2022-09-12T09:44:16.760Z,3.30
2022-09-12T09:49:23.741Z,2.97
2022-09-12T09:54:30.938Z,3.10
2022-09-12T09:59:37.805Z,3.33
2022-09-12T10:04:51.080Z,3.86
2022-09-12T10:09:50.972Z,3.77
2022-09-12T10:14:58.093Z,3.87
2022-09-12T10:20:20.379Z,5.29
2022-09-12T10:25:11.724Z,6.48
2022-09-12T10:30:18.869Z,4.31
2022-09-12T10:35:25.995Z,4.78
2022-09-12T10:40:33.029Z,4.02
2022-09-12T10:45:40.037Z,3.73
2022-09-12T10:50:47.192Z,4.88
2022-09-12T10:55:54.112Z,3.62
2022-09-12T11:00:56.873Z,3.59
2022-09-12T11:06:03.896Z,3.86
2022-09-12T11:11:17.139Z,2.79
2022-09-12T11:16:14.071Z,2.92
2022-09-12T11:21:23.904Z,4.37
2022-09-12T11:26:30.803Z,4.59
2022-09-12T11:31:37.952Z,4.00
2022-09-12T11:36:44.910Z,3.19
2022-09-12T11:41:52.050Z,3.52
2022-09-12T11:46:59.184Z,3.66
2022-09-12T11:52:06.195Z,3.80
2022-09-12T11:57:13.148Z,3.07
2022-09-12T12:02:20.173Z,2.77
2022-09-12T12:07:27.206Z,3.70
2022-09-12T12:12:34.310Z,3.83
2022-09-12T12:17:44.839Z,2.81
2022-09-12T12:22:41.976Z,4.37
2022-09-12T12:27:51.821Z,2.44
2022-09-12T12:33:00.044Z,1.93
2022-09-12T12:38:06.948Z,2.16
2022-09-12T12:43:13.898Z,2.95
2022-09-12T12:48:21.011Z,1.75
2022-09-12T12:53:27.973Z,2.30
2022-09-12T12:58:35.099Z,3.17
2022-09-12T13:03:42.178Z,2.12
2022-09-12T13:08:49.130Z,4.19
2022-09-12T13:13:56.129Z,2.24
2022-09-12T13:19:03.159Z,2.54
2022-09-12T13:24:10.253Z,2.68
2022-09-12T13:29:17.498Z,4.15
2022-09-12T13:34:24.509Z,3.45
2022-09-12T13:39:31.626Z,3.12
2022-09-12T13:44:38.623Z,2.08
2022-09-12T13:49:45.747Z,3.70
2022-09-12T13:54:52.720Z,2.77
2022-09-12T14:00:00.199Z,3.34
2022-09-12T14:05:07.106Z,3.27
2022-09-12T14:10:14.144Z,5.55
2022-09-12T14:15:21.128Z,4.13
2022-09-12T14:20:28.101Z,3.81
2022-09-12T14:25:35.047Z,3.97
2022-09-12T14:30:42.206Z,4.87
2022-09-12T14:35:49.066Z,4.85
2022-09-12T14:40:56.117Z,3.88
2022-09-12T14:46:03.267Z,4.33
2022-09-12T14:51:10.390Z,4.23
2022-09-12T14:56:17.352Z,4.58
2022-09-12T15:01:24.504Z,4.77
2022-09-12T15:06:31.425Z,5.78
2022-09-12T15:11:38.545Z,6.84
2022-09-12T15:16:47.826Z,4.37
2022-09-12T15:21:54.911Z,6.19
2022-09-12T15:27:01.842Z,6.06
2022-09-12T15:32:09.033Z,5.71
2022-09-12T15:37:16.069Z,5.72
2022-09-12T15:42:23.260Z,5.98
2022-09-12T15:47:30.206Z,5.37
2022-09-12T15:52:37.319Z,7.93
2022-09-12T15:57:44.402Z,7.23
2022-09-12T16:02:51.621Z,5.84
2022-09-12T16:07:58.585Z,6.40
2022-09-12T16:13:05.724Z,7.15
2022-09-12T16:18:12.633Z,5.86
2022-09-12T16:23:20.998Z,7.19
2022-09-12T16:28:26.768Z,8.74
2022-09-12T16:33:33.885Z,7.56
2022-09-12T16:38:40.925Z,7.80
2022-09-12T16:43:49.918Z,8.30
2022-09-12T16:48:56.129Z,8.61
2022-09-12T16:54:03.799Z,8.60
2022-09-12T16:59:10.734Z,6.70
2022-09-12T17:04:21.701Z,8.66
2022-09-12T17:09:24.286Z,8.62
2022-09-12T17:14:31.455Z,7.51
2022-09-12T17:19:38.416Z,10.80
2022-09-12T17:24:45.418Z,10.57
2022-09-12T17:29:52.432Z,12.32
2022-09-12T17:34:59.634Z,9.74
2022-09-12T17:40:06.624Z,10.03
2022-09-12T17:45:18.202Z,11.81
2022-09-12T17:55:29.852Z,9.38
2022-09-12T18:00:36.823Z,11.97
2022-09-12T18:05:43.966Z,10.02
2022-09-12T18:10:51.989Z,12.15
2022-09-12T18:15:59.254Z,11.97
2022-09-12T18:21:06.299Z,12.19
2022-09-12T18:26:13.360Z,12.90
2022-09-12T18:31:20.493Z,13.85
2022-09-12T18:36:27.444Z,11.69
2022-09-12T18:41:34.507Z,13.04
2022-09-12T18:46:41.518Z,10.83
2022-09-12T18:51:48.657Z,10.26
2022-09-12T18:56:55.589Z,12.48
2022-09-12T19:02:02.881Z,10.38
2022-09-12T19:07:09.741Z,10.08
2022-09-12T19:12:16.795Z,9.70
2022-09-12T19:17:23.785Z,6.94
2022-09-12T19:22:30.965Z,6.33
2022-09-12T19:27:37.956Z,6.27
2022-09-12T19:32:44.991Z,6.12
2022-09-12T19:37:52.015Z,7.58
2022-09-12T19:42:58.913Z,7.16
2022-09-12T19:48:08.589Z,6.75
2022-09-12T19:53:15.601Z,4.61
2022-09-12T19:58:22.662Z,3.96
2022-09-12T20:03:29.575Z,4.49
2022-09-12T20:08:36.656Z,4.40
2022-09-12T20:13:52.173Z,4.35
2022-09-12T20:18:49.339Z,4.43
2022-09-12T20:23:56.336Z,2.90
2022-09-12T20:29:03.552Z,4.02
2022-09-12T20:34:10.607Z,4.35
2022-09-12T20:39:17.773Z,3.94
2022-09-12T20:44:24.823Z,4.43
2022-09-12T20:49:31.806Z,6.71
2022-09-12T20:54:38.895Z,6.84
2022-09-12T20:59:46.192Z,6.87
2022-09-12T21:04:53.125Z,6.70
2022-09-12T21:10:00.049Z,5.29
2022-09-12T21:15:07.123Z,5.58
2022-09-12T21:20:14.227Z,5.43
2022-09-12T21:25:23.926Z,8.58
2022-09-12T21:30:31.028Z,6.36
2022-09-12T21:35:38.053Z,6.41
2022-09-12T21:40:45.054Z,7.23
2022-09-12T21:45:52.048Z,6.13
2022-09-12T21:50:59.148Z,7.17
2022-09-12T21:56:06.084Z,7.57
2022-09-12T22:01:13.200Z,6.56
2022-09-12T22:06:22.557Z,7.07
2022-09-12T22:11:26.656Z,6.88
2022-09-12T22:16:33.703Z,4.02
2022-09-12T22:21:40.716Z,4.80
2022-09-12T22:26:47.659Z,4.52
2022-09-12T22:31:54.826Z,6.56
2022-09-12T22:37:01.801Z,6.32
2022-09-12T22:42:08.926Z,5.23
2022-09-12T22:47:16.059Z,6.00
2022-09-12T22:52:23.426Z,5.58
2022-09-12T22:57:30.394Z,4.47
2022-09-12T23:02:37.398Z,6.31
2022-09-12T23:07:44.369Z,3.51
2022-09-12T23:12:51.461Z,5.57
2022-09-12T23:17:58.400Z,5.72
2022-09-12T23:23:05.519Z,7.53
2022-09-12T23:28:12.507Z,6.71
2022-09-12T23:33:19.812Z,12.91
2022-09-12T23:38:26.755Z,16.69
2022-09-12T23:43:33.853Z,9.08
2022-09-12T23:48:41.100Z,7.68
2022-09-12T23:53:48.018Z,11.19
2022-09-12T23:58:55.117Z,15.80
